North River — WYR2549 — position and weather

sailwx.info

Track history (hours):
 
Tides and Currents Weather Stations Pressure Air Temp Water Temp Dewpoint Dewpoint Depression Visibility Wind Speed Wind Dir Waves Ship Positions

North River

More information available from US FCC via Universal Licensing System and Coast Guard Vessel Documentation Center.

Last reported at 2014-Aug-27 22:30 UTC. Time now 2014-Aug-30 14:36 UTC.
Position N 40°47' W 073°56'.

Length 78 m.

Type: Tanker. MMSI: 367074110.

Date/timePositionNaut miles runAvg speedWind from/ knotsBaromVisibWave heightAir tempDewpointWater temp
2014-Aug-27 22:30N 40°47' W 073°56'1212.3
2014-Aug-27 21:33N 40°36' W 074°02'8 7.4
2014-Aug-27 20:30N 40°38' W 073°52'0 0.3
2014-Aug-27 19:32N 40°38' W 073°52'0 0.0
2014-Aug-27 18:33N 40°38' W 073°52'1 0.7
2014-Aug-27 17:31N 40°38' W 073°53'4 3.6
2014-Aug-27 16:33N 40°35' W 073°50'0 0.0
2014-Aug-27 15:33N 40°35' W 073°50'2 1.6
2014-Aug-27 14:33N 40°35' W 073°52'9 8.7
2014-Aug-27 13:33N 40°39' W 074°02'10 9.6
2014-Aug-27 12:32N 40°47' W 073°55'1 1.3
2014-Aug-27 11:32N 40°47' W 073°54'1 0.1
2014-Aug-26 23:33N 40°48' W 073°53'4 1.3
2014-Aug-26 20:33N 40°45' W 073°57'2 0.7
2014-Aug-26 17:12N 40°46' W 074°00'2 3.8
2014-Aug-26 16:33N 40°45' W 073°58'4 4.2
2014-Aug-26 15:33N 40°47' W 073°54'0 0.0
2014-Aug-25 20:05N 40°47' W 073°54'2 3.9
2014-Aug-25 19:33N 40°47' W 073°56'3 3.2
2014-Aug-25 18:33N 40°46' W 074°00'0 0.1
2014-Aug-25 15:28N 40°46' W 074°00'5 5.1
2014-Aug-25 14:29N 40°48' W 073°54'1 1.4
2014-Aug-25 13:33N 40°47' W 073°54'0 0.0
2014-Aug-25 12:33N 40°47' W 073°54'0 0.0
2014-Aug-25 11:33N 40°47' W 073°54'  
2014-Aug-22 23:16N 40°47' W 073°54'1 1.7
2014-Aug-22 22:33N 40°48' W 073°53'0 0.0
2014-Aug-22 21:33N 40°48' W 073°53'0 0.0
2014-Aug-22 20:33N 40°48' W 073°53'0 0.0
2014-Aug-22 19:33N 40°48' W 073°53'4 4.0
2014-Aug-22 18:33N 40°46' W 073°57'8 7.9
2014-Aug-22 17:33N 40°39' W 074°02'0 0.0
2014-Aug-22 16:34N 40°39' W 074°02'1 0.5
2014-Aug-22 15:33N 40°39' W 074°02'10 9.9
2014-Aug-22 14:33N 40°47' W 073°54'0 0.0
2014-Aug-22 13:33N 40°47' W 073°54'0 0.0
2014-Aug-22 12:34N 40°47' W 073°54'0 0.0
2014-Aug-22 11:33N 40°47' W 073°54'0 0.0
2014-Aug-22 10:32N 40°47' W 073°54'0 0.0
2014-Aug-21 21:31N 40°47' W 073°53'9 9.3
2014-Aug-21 20:33N 40°41' W 074°02'5 4.6
2014-Aug-21 19:32N 40°43' W 074°07'0 0.0
2014-Aug-21 18:33N 40°43' W 074°07'0 0.0
2014-Aug-21 17:33N 40°43' W 074°07'4 4.2
2014-Aug-21 16:33N 40°39' W 074°05'1210.7
2014-Aug-21 15:27N 40°49' W 073°58'0 0.0
2014-Aug-21 14:08N 40°49' W 073°58'2 3.8
2014-Aug-21 13:33N 40°48' W 073°59'2 2.4
2014-Aug-21 12:34N 40°47' W 073°56'2 2.1
2014-Aug-21 11:33N 40°47' W 073°54'0 0.0
2014-Aug-21 10:33N 40°47' W 073°54'0 0.0
2014-Aug-20 21:30N 40°47' W 073°54'9 9.9
2014-Aug-20 20:33N 40°40' W 074°02'9 9.1
2014-Aug-20 19:33N 40°34' W 073°53'2 0.6
2014-Aug-20 16:33N 40°36' W 073°53'8 5.5
2014-Aug-20 15:12N 40°37' W 074°03'2 3.4
2014-Aug-20 14:33N 40°39' W 074°02'0 0.0
2014-Aug-20 13:33N 40°39' W 074°02'9 9.4
2014-Aug-20 12:33N 40°47' W 073°56'2 0.1
2014-Aug-19 18:27N 40°47' W 073°54'1 1.4
2014-Aug-19 17:33N 40°47' W 073°55'0 0.0
2014-Aug-19 16:33N 40°47' W 073°55'0 0.0
2014-Aug-19 15:33N 40°47' W 073°55'0 0.0
2014-Aug-19 14:33N 40°47' W 073°55'0 0.0
2014-Aug-19 13:33N 40°47' W 073°55'0 0.0
2014-Aug-19 12:33N 40°47' W 073°55'1 1.3
2014-Aug-19 11:33N 40°47' W 073°54'2 0.2
2014-Aug-18 22:31N 40°47' W 073°56'9 9.6
2014-Aug-18 21:33N 40°39' W 074°02'0 0.0
2014-Aug-18 20:33N 40°39' W 074°02'4 4.0
2014-Aug-18 19:33N 40°35' W 074°01'8 7.7
2014-Aug-18 18:33N 40°38' W 073°52'0 0.3
2014-Aug-18 17:28N 40°38' W 073°52'0 0.0
2014-Aug-18 16:31N 40°38' W 073°52'9 9.2
2014-Aug-18 15:33N 40°30' W 073°56'10 9.9
2014-Aug-18 14:33N 40°39' W 074°02'0 0.0
2014-Aug-18 13:33N 40°39' W 074°02'1 1.4
2014-Aug-18 12:33N 40°40' W 074°01'9 9.2
2014-Aug-18 11:33N 40°47' W 073°54'  
Track history (hours):
 
Tides and Currents Weather Stations Pressure Air Temp Water Temp Dewpoint Dewpoint Depression Visibility Wind Speed Wind Dir Waves Ship Positions

North River

More information available from US FCC via Universal Licensing System and Coast Guard Vessel Documentation Center.

Last reported at 2014-Aug-27 22:30 UTC. Time now 2014-Aug-30 14:36 UTC.
Position N 40°47' W 073°56'.

Length 78 m.

Type: Tanker. MMSI: 367074110.

Date/timePositionNaut miles runAvg speedWind from/ knotsBaromVisibWave heightAir tempDewpointWater temp
2014-Aug-27 22:30N 40°47' W 073°56'1212.3
2014-Aug-27 21:33N 40°36' W 074°02'8 7.4
2014-Aug-27 20:30N 40°38' W 073°52'0 0.3
2014-Aug-27 19:32N 40°38' W 073°52'0 0.0
2014-Aug-27 18:33N 40°38' W 073°52'1 0.7
2014-Aug-27 17:31N 40°38' W 073°53'4 3.6
2014-Aug-27 16:33N 40°35' W 073°50'0 0.0
2014-Aug-27 15:33N 40°35' W 073°50'2 1.6
2014-Aug-27 14:33N 40°35' W 073°52'9 8.7
2014-Aug-27 13:33N 40°39' W 074°02'10 9.6
2014-Aug-27 12:32N 40°47' W 073°55'1 1.3
2014-Aug-27 11:32N 40°47' W 073°54'1 0.1
2014-Aug-26 23:33N 40°48' W 073°53'4 1.3
2014-Aug-26 20:33N 40°45' W 073°57'2 0.7
2014-Aug-26 17:12N 40°46' W 074°00'2 3.8
2014-Aug-26 16:33N 40°45' W 073°58'4 4.2
2014-Aug-26 15:33N 40°47' W 073°54'0 0.0
2014-Aug-25 20:05N 40°47' W 073°54'2 3.9
2014-Aug-25 19:33N 40°47' W 073°56'3 3.2
2014-Aug-25 18:33N 40°46' W 074°00'0 0.1
2014-Aug-25 15:28N 40°46' W 074°00'5 5.1
2014-Aug-25 14:29N 40°48' W 073°54'1 1.4
2014-Aug-25 13:33N 40°47' W 073°54'0 0.0
2014-Aug-25 12:33N 40°47' W 073°54'0 0.0
2014-Aug-25 11:33N 40°47' W 073°54'  
2014-Aug-22 23:16N 40°47' W 073°54'1 1.7
2014-Aug-22 22:33N 40°48' W 073°53'0 0.0
2014-Aug-22 21:33N 40°48' W 073°53'0 0.0
2014-Aug-22 20:33N 40°48' W 073°53'0 0.0
2014-Aug-22 19:33N 40°48' W 073°53'4 4.0
2014-Aug-22 18:33N 40°46' W 073°57'8 7.9
2014-Aug-22 17:33N 40°39' W 074°02'0 0.0
2014-Aug-22 16:34N 40°39' W 074°02'1 0.5
2014-Aug-22 15:33N 40°39' W 074°02'10 9.9
2014-Aug-22 14:33N 40°47' W 073°54'0 0.0
2014-Aug-22 13:33N 40°47' W 073°54'0 0.0
2014-Aug-22 12:34N 40°47' W 073°54'0 0.0
2014-Aug-22 11:33N 40°47' W 073°54'0 0.0
2014-Aug-22 10:32N 40°47' W 073°54'0 0.0
2014-Aug-21 21:31N 40°47' W 073°53'9 9.3
2014-Aug-21 20:33N 40°41' W 074°02'5 4.6
2014-Aug-21 19:32N 40°43' W 074°07'0 0.0
2014-Aug-21 18:33N 40°43' W 074°07'0 0.0
2014-Aug-21 17:33N 40°43' W 074°07'4 4.2
2014-Aug-21 16:33N 40°39' W 074°05'1210.7
2014-Aug-21 15:27N 40°49' W 073°58'0 0.0
2014-Aug-21 14:08N 40°49' W 073°58'2 3.8
2014-Aug-21 13:33N 40°48' W 073°59'2 2.4
2014-Aug-21 12:34N 40°47' W 073°56'2 2.1
2014-Aug-21 11:33N 40°47' W 073°54'0 0.0
2014-Aug-21 10:33N 40°47' W 073°54'0 0.0
2014-Aug-20 21:30N 40°47' W 073°54'9 9.9
2014-Aug-20 20:33N 40°40' W 074°02'9 9.1
2014-Aug-20 19:33N 40°34' W 073°53'2 0.6
2014-Aug-20 16:33N 40°36' W 073°53'8 5.5
2014-Aug-20 15:12N 40°37' W 074°03'2 3.4
2014-Aug-20 14:33N 40°39' W 074°02'0 0.0
2014-Aug-20 13:33N 40°39' W 074°02'9 9.4
2014-Aug-20 12:33N 40°47' W 073°56'2 0.1
2014-Aug-19 18:27N 40°47' W 073°54'1 1.4
2014-Aug-19 17:33N 40°47' W 073°55'0 0.0
2014-Aug-19 16:33N 40°47' W 073°55'0 0.0
2014-Aug-19 15:33N 40°47' W 073°55'0 0.0
2014-Aug-19 14:33N 40°47' W 073°55'0 0.0
2014-Aug-19 13:33N 40°47' W 073°55'0 0.0
2014-Aug-19 12:33N 40°47' W 073°55'1 1.3
2014-Aug-19 11:33N 40°47' W 073°54'2 0.2
2014-Aug-18 22:31N 40°47' W 073°56'9 9.6
2014-Aug-18 21:33N 40°39' W 074°02'0 0.0
2014-Aug-18 20:33N 40°39' W 074°02'4 4.0
2014-Aug-18 19:33N 40°35' W 074°01'8 7.7
2014-Aug-18 18:33N 40°38' W 073°52'0 0.3
2014-Aug-18 17:28N 40°38' W 073°52'0 0.0
2014-Aug-18 16:31N 40°38' W 073°52'9 9.2
2014-Aug-18 15:33N 40°30' W 073°56'10 9.9
2014-Aug-18 14:33N 40°39' W 074°02'0 0.0
2014-Aug-18 13:33N 40°39' W 074°02'1 1.4
2014-Aug-18 12:33N 40°40' W 074°01'9 9.2
2014-Aug-18 11:33N 40°47' W 073°54'  

Dump ship's entire track history